TimeCDT,TemperatureF,Dew PointF,Humidity,Sea Level PressureIn,VisibilityMPH,Wind Direction,Wind SpeedMPH,Gust SpeedMPH,PrecipitationIn,Events,Conditions,WindDirDegrees,DateUTC
12:12 AM,57.2,44.6,63,30.09,10.0,NNW,9.2,-,N/A,,Mostly Cloudy,330,2012-09-09 05:12:00
12:33 AM,57.2,44.6,63,30.09,10.0,NNW,6.9,-,N/A,,Overcast,330,2012-09-09 05:33:00
12:52 AM,57.2,44.6,63,30.10,10.0,NNW,8.1,-,N/A,,Overcast,330,2012-09-09 05:52:00
1:12 AM,55.4,44.6,67,30.10,10.0,NNW,9.2,-,N/A,,Scattered Clouds,330,2012-09-09 06:12:00
1:33 AM,53.6,44.6,72,30.10,10.0,NNW,8.1,-,N/A,,Clear,330,2012-09-09 06:33:00
1:52 AM,51.8,44.6,76,30.11,10.0,NNW,8.1,-,N/A,,Clear,330,2012-09-09 06:52:00
2:12 AM,53.6,44.6,72,30.11,10.0,NNW,10.4,-,N/A,,Clear,340,2012-09-09 07:12:00
2:33 AM,51.8,46.4,82,30.12,10.0,North,8.1,-,N/A,,Clear,350,2012-09-09 07:33:00
2:52 AM,50.0,44.6,82,30.12,10.0,NNW,8.1,-,N/A,,Clear,340,2012-09-09 07:52:00
3:12 AM,48.2,44.6,87,30.12,10.0,NNW,5.8,-,N/A,,Clear,330,2012-09-09 08:12:00
3:33 AM,48.2,44.6,87,30.13,10.0,NNW,9.2,-,N/A,,Clear,340,2012-09-09 08:33:00
3:52 AM,48.2,44.6,87,30.14,10.0,NNW,8.1,-,N/A,,Clear,330,2012-09-09 08:52:00
4:12 AM,48.2,44.6,87,30.14,10.0,NW,6.9,-,N/A,,Clear,320,2012-09-09 09:12:00
4:33 AM,48.2,44.6,87,30.15,10.0,NW,6.9,-,N/A,,Clear,320,2012-09-09 09:33:00
4:52 AM,48.2,44.6,87,30.15,10.0,NW,6.9,-,N/A,,Clear,320,2012-09-09 09:52:00
5:12 AM,46.4,44.6,93,30.16,10.0,NW,8.1,-,N/A,,Clear,320,2012-09-09 10:12:00
5:33 AM,46.4,44.6,93,30.16,10.0,NNW,8.1,-,N/A,,Clear,330,2012-09-09 10:33:00
5:52 AM,46.4,44.6,93,30.17,10.0,NW,6.9,-,N/A,,Clear,320,2012-09-09 10:52:00
6:12 AM,46.4,44.6,93,30.17,10.0,NW,6.9,-,N/A,,Clear,320,2012-09-09 11:12:00
6:32 AM,46.4,44.6,93,30.18,10.0,NW,5.8,-,N/A,,Clear,320,2012-09-09 11:32:00
6:52 AM,46.4,42.8,87,30.18,10.0,NW,3.5,-,N/A,,Clear,320,2012-09-09 11:52:00
7:52 AM,48.2,44.6,87,30.20,10.0,Calm,Calm,-,N/A,,Clear,0,2012-09-09 12:52:00
8:13 AM,51.8,46.4,82,30.21,10.0,NW,4.6,-,N/A,,Clear,320,2012-09-09 13:13:00
8:32 AM,53.6,46.4,77,30.22,10.0,NW,4.6,-,N/A,,Clear,310,2012-09-09 13:32:00
8:52 AM,53.6,48.2,82,30.22,10.0,NW,4.6,-,N/A,,Clear,320,2012-09-09 13:52:00
9:13 AM,55.4,48.2,77,30.22,10.0,NNW,4.6,-,N/A,,Clear,330,2012-09-09 14:13:00
9:32 AM,57.2,48.2,72,30.22,10.0,North,4.6,-,N/A,,Clear,360,2012-09-09 14:32:00
9:52 AM,59.0,48.2,67,30.23,10.0,NNW,5.8,-,N/A,,Clear,340,2012-09-09 14:52:00
10:13 AM,60.8,48.2,63,30.23,10.0,North,3.5,-,N/A,,Clear,350,2012-09-09 15:13:00
10:32 AM,60.8,48.2,63,30.23,10.0,NNW,3.5,-,N/A,,Clear,330,2012-09-09 15:32:00
10:52 AM,62.6,48.2,59,30.23,10.0,Calm,Calm,-,N/A,,Clear,0,2012-09-09 15:52:00
11:13 AM,64.4,48.2,56,30.23,10.0,NW,3.5,-,N/A,,Scattered Clouds,320,2012-09-09 16:13:00
11:32 AM,64.4,46.4,52,30.23,10.0,NW,6.9,-,N/A,,Scattered Clouds,310,2012-09-09 16:32:00
11:52 AM,66.2,46.4,49,30.22,10.0,Calm,Calm,-,N/A,,Clear,0,2012-09-09 16:52:00
12:13 PM,66.2,46.4,49,30.22,10.0,Calm,Calm,-,N/A,,Clear,0,2012-09-09 17:13:00
12:31 PM,68.0,46.4,46,30.21,10.0,WNW,6.9,-,N/A,,Unknown,290,2012-09-09 17:31:00
12:52 PM,69.8,46.4,43,30.21,10.0,NW,4.6,-,N/A,,Unknown,310,2012-09-09 17:52:00
1:12 PM,69.8,46.4,43,30.20,10.0,Calm,Calm,-,N/A,,Unknown,0,2012-09-09 18:12:00
1:32 PM,69.8,44.6,40,30.20,10.0,South,4.6,-,N/A,,Unknown,180,2012-09-09 18:32:00
1:52 PM,69.8,44.6,40,30.19,10.0,SSW,3.5,-,N/A,,Unknown,200,2012-09-09 18:52:00
2:13 PM,71.6,44.6,38,30.18,10.0,Calm,Calm,-,N/A,,Clear,0,2012-09-09 19:13:00
2:32 PM,71.6,42.8,35,30.17,10.0,South,3.5,-,N/A,,Clear,180,2012-09-09 19:32:00
2:52 PM,71.6,44.6,38,30.17,10.0,Calm,Calm,-,N/A,,Clear,0,2012-09-09 19:52:00
3:13 PM,73.4,42.8,33,30.16,10.0,Calm,Calm,-,N/A,,Clear,0,2012-09-09 20:13:00
3:32 PM,73.4,42.8,33,30.15,10.0,WNW,4.6,-,N/A,,Clear,290,2012-09-09 20:32:00
3:53 PM,73.4,41.0,31,30.14,10.0,Calm,Calm,-,N/A,,Clear,0,2012-09-09 20:53:00
4:12 PM,73.4,42.8,33,30.14,10.0,SW,3.5,-,N/A,,Clear,220,2012-09-09 21:12:00
4:32 PM,73.4,42.8,33,30.13,10.0,Calm,Calm,-,N/A,,Clear,0,2012-09-09 21:32:00
4:53 PM,73.4,39.2,29,30.13,10.0,Calm,Calm,-,N/A,,Clear,0,2012-09-09 21:53:00
5:12 PM,75.2,41.0,29,30.12,10.0,South,6.9,-,N/A,,Clear,190,2012-09-09 22:12:00
5:32 PM,75.2,41.0,29,30.12,10.0,SE,3.5,-,N/A,,Clear,140,2012-09-09 22:32:00
5:53 PM,73.4,41.0,31,30.11,10.0,SW,5.8,-,N/A,,Clear,230,2012-09-09 22:53:00
6:12 PM,73.4,42.8,33,30.11,10.0,SSW,6.9,-,N/A,,Clear,200,2012-09-09 23:12:00
6:32 PM,73.4,39.2,29,30.10,10.0,South,4.6,-,N/A,,Clear,190,2012-09-09 23:32:00
6:53 PM,73.4,41.0,31,30.10,10.0,South,5.8,-,N/A,,Clear,180,2012-09-09 23:53:00
7:12 PM,71.6,42.8,35,30.10,10.0,SSE,5.8,-,N/A,,Clear,150,2012-09-10 00:12:00
7:32 PM,69.8,42.8,38,30.10,10.0,SE,4.6,-,N/A,,Clear,130,2012-09-10 00:32:00
7:53 PM,64.4,42.8,45,30.09,10.0,Calm,Calm,-,N/A,,Clear,0,2012-09-10 00:53:00
8:12 PM,64.4,42.8,45,30.10,10.0,SSE,5.8,-,N/A,,Clear,150,2012-09-10 01:12:00
8:32 PM,64.4,44.6,49,30.10,10.0,SSE,5.8,-,N/A,,Clear,150,2012-09-10 01:32:00
8:53 PM,62.6,46.4,55,30.10,10.0,SSE,5.8,-,N/A,,Clear,150,2012-09-10 01:53:00
9:12 PM,62.6,46.4,55,30.10,10.0,SSE,5.8,-,N/A,,Clear,150,2012-09-10 02:12:00
9:33 PM,60.8,46.4,59,30.10,10.0,SSE,6.9,-,N/A,,Clear,160,2012-09-10 02:33:00
9:52 PM,60.8,46.4,59,30.10,10.0,SSE,5.8,-,N/A,,Clear,160,2012-09-10 02:52:00
10:13 PM,60.8,46.4,59,30.10,10.0,SSE,6.9,-,N/A,,Clear,160,2012-09-10 03:13:00
10:32 PM,60.8,44.6,55,30.10,10.0,South,4.6,-,N/A,,Clear,170,2012-09-10 03:32:00
10:52 PM,60.8,44.6,55,30.10,10.0,South,3.5,-,N/A,,Clear,170,2012-09-10 03:52:00
11:13 PM,59.0,46.4,63,30.09,10.0,South,5.8,-,N/A,,Clear,170,2012-09-10 04:13:00
11:32 PM,57.2,46.4,67,30.09,10.0,South,5.8,-,N/A,,Clear,190,2012-09-10 04:32:00
11:45 PM,57.2,46.4,67,30.10,10.0,South,5.8,-,N/A,,Clear,180,2012-09-10 04:45:00